createdAt,value
2018-07-19T00:00:03.969Z,996.40
2018-07-19T00:01:03.951Z,996.48
2018-07-19T00:02:03.940Z,996.45
2018-07-19T00:03:03.917Z,996.41
2018-07-19T00:04:24.902Z,996.40
2018-07-19T00:05:03.893Z,996.44
2018-07-19T00:06:03.879Z,996.44
2018-07-19T00:07:03.864Z,996.44
2018-07-19T00:08:03.858Z,996.42
2018-07-19T00:09:03.912Z,996.44
2018-07-19T00:10:24.804Z,996.43
2018-07-19T00:11:03.794Z,996.41
2018-07-19T00:12:03.804Z,996.44
2018-07-19T00:13:03.759Z,996.41
2018-07-19T00:14:03.741Z,996.42
2018-07-19T00:15:03.753Z,996.43
2018-07-19T00:16:24.708Z,996.45
2018-07-19T00:17:03.695Z,996.41
2018-07-19T00:18:03.677Z,996.43
2018-07-19T00:19:03.781Z,996.45
2018-07-19T00:20:03.654Z,996.44
2018-07-19T00:21:03.615Z,996.46
2018-07-19T00:22:24.606Z,996.45
2018-07-19T00:23:03.583Z,996.44
2018-07-19T00:24:03.568Z,996.47
2018-07-19T00:25:03.548Z,996.44
2018-07-19T00:26:03.539Z,996.39
2018-07-19T00:27:03.520Z,996.39
2018-07-19T00:28:24.501Z,996.37
2018-07-19T00:29:03.488Z,996.39
2018-07-19T00:30:03.462Z,996.38
2018-07-19T00:31:03.452Z,996.39
2018-07-19T00:32:03.444Z,996.35
2018-07-19T00:33:03.425Z,996.32
2018-07-19T00:34:24.403Z,996.33
2018-07-19T00:35:03.385Z,996.36
2018-07-19T00:36:03.370Z,996.39
2018-07-19T00:37:03.357Z,996.35
2018-07-19T00:38:03.331Z,996.38
2018-07-19T00:39:03.325Z,996.40
2018-07-19T00:40:24.307Z,996.39
2018-07-19T00:41:03.289Z,996.37
2018-07-19T00:42:03.267Z,996.42
2018-07-19T00:43:03.249Z,996.34
2018-07-19T00:44:03.243Z,996.40
2018-07-19T00:45:03.213Z,996.39
2018-07-19T00:46:24.206Z,996.46
2018-07-19T00:47:03.179Z,996.44
2018-07-19T00:48:03.163Z,996.43
2018-07-19T00:49:03.153Z,996.39
2018-07-19T00:50:03.137Z,996.43
2018-07-19T00:51:03.118Z,996.43
2018-07-19T00:52:24.107Z,996.43
2018-07-19T00:53:03.077Z,996.45
2018-07-19T00:54:03.063Z,996.41
2018-07-19T00:55:03.050Z,996.45
2018-07-19T00:56:03.034Z,996.43
2018-07-19T00:57:03.004Z,996.43
2018-07-19T00:58:23.994Z,996.41
2018-07-19T00:59:02.981Z,996.42
2018-07-19T01:00:02.956Z,996.46
2018-07-19T01:01:02.942Z,996.44
2018-07-19T01:02:02.930Z,996.46
2018-07-19T01:03:02.911Z,996.45
2018-07-19T01:04:23.905Z,996.43
2018-07-19T01:05:02.873Z,996.44
2018-07-19T01:06:02.853Z,996.46
2018-07-19T01:07:02.843Z,996.47
2018-07-19T01:08:02.828Z,996.46
2018-07-19T01:09:02.810Z,996.46
2018-07-19T01:10:23.797Z,996.47
2018-07-19T01:11:02.789Z,996.47
2018-07-19T01:12:02.756Z,996.47
2018-07-19T01:13:02.739Z,996.47
2018-07-19T01:14:02.724Z,996.50
2018-07-19T01:15:02.701Z,996.50
2018-07-19T01:16:23.692Z,996.50
2018-07-19T01:17:02.675Z,996.51
2018-07-19T01:18:02.656Z,996.53
2018-07-19T01:19:02.640Z,996.48
2018-07-19T01:20:02.641Z,996.48
2018-07-19T01:21:02.607Z,996.51
2018-07-19T01:22:23.589Z,996.50
2018-07-19T01:23:02.571Z,996.47
2018-07-19T01:24:02.559Z,996.50
2018-07-19T01:25:02.534Z,996.49
2018-07-19T01:26:02.519Z,996.47
2018-07-19T01:27:02.508Z,996.44
2018-07-19T01:28:23.490Z,996.46
2018-07-19T01:29:02.465Z,996.45
2018-07-19T01:30:02.467Z,996.42
2018-07-19T01:31:02.434Z,996.44
2018-07-19T01:32:02.420Z,996.43
2018-07-19T01:33:02.400Z,996.42
2018-07-19T01:34:23.387Z,996.40
2018-07-19T01:35:02.380Z,996.42
2018-07-19T01:36:02.339Z,996.40
2018-07-19T01:37:02.330Z,996.39
2018-07-19T01:38:02.310Z,996.41
2018-07-19T01:39:02.298Z,996.39
2018-07-19T01:40:23.284Z,996.39
2018-07-19T01:41:02.263Z,996.42
2018-07-19T01:42:02.247Z,996.38
2018-07-19T01:43:02.231Z,996.39
2018-07-19T01:44:02.210Z,996.45
2018-07-19T01:45:02.197Z,996.41
2018-07-19T01:46:23.180Z,996.40
2018-07-19T01:47:02.163Z,996.37
2018-07-19T01:48:02.152Z,996.37
2018-07-19T01:49:02.134Z,996.33
2018-07-19T01:50:02.104Z,996.34
2018-07-19T01:51:02.095Z,996.34
2018-07-19T01:52:23.076Z,996.36
2018-07-19T01:53:02.053Z,996.40
2018-07-19T01:54:02.040Z,996.38
2018-07-19T01:55:02.026Z,996.36
2018-07-19T01:56:02.007Z,996.38
2018-07-19T01:57:01.986Z,996.39
2018-07-19T01:58:22.978Z,996.36
2018-07-19T01:59:01.951Z,996.38
2018-07-19T02:00:01.999Z,996.42
2018-07-19T02:01:01.922Z,996.38
2018-07-19T02:02:01.901Z,996.39
2018-07-19T02:03:01.877Z,996.39
2018-07-19T02:04:22.873Z,996.37
2018-07-19T02:05:01.849Z,996.40
2018-07-19T02:06:01.836Z,996.40
2018-07-19T02:07:01.814Z,996.41
2018-07-19T02:08:01.797Z,996.40
2018-07-19T02:09:01.781Z,996.38
2018-07-19T02:10:22.771Z,996.41
2018-07-19T02:11:01.747Z,996.41
2018-07-19T02:12:01.730Z,996.38
2018-07-19T02:13:01.708Z,996.42
2018-07-19T02:14:01.692Z,996.40
2018-07-19T02:15:01.676Z,996.40
2018-07-19T02:16:22.659Z,996.42
2018-07-19T02:17:01.648Z,996.42
2018-07-19T02:18:01.624Z,996.45
2018-07-19T02:19:01.605Z,996.47
2018-07-19T02:20:01.589Z,996.44
2018-07-19T02:21:01.567Z,996.45
2018-07-19T02:22:22.557Z,996.47
2018-07-19T02:23:01.532Z,996.47
2018-07-19T02:24:01.515Z,996.47
2018-07-19T02:25:01.518Z,996.46
2018-07-19T02:26:01.487Z,996.49
2018-07-19T02:27:01.464Z,996.51
2018-07-19T02:28:22.449Z,996.49
2018-07-19T02:29:01.435Z,996.51
2018-07-19T02:30:01.484Z,996.48
2018-07-19T02:31:01.396Z,996.48
2018-07-19T02:32:01.630Z,996.48
2018-07-19T02:33:01.357Z,996.47
2018-07-19T02:34:22.346Z,996.48
2018-07-19T02:35:01.334Z,996.48
2018-07-19T02:36:01.308Z,996.47
2018-07-19T02:37:01.299Z,996.48
2018-07-19T02:38:01.280Z,996.47
2018-07-19T02:39:01.264Z,996.49
2018-07-19T02:40:22.234Z,996.52
2018-07-19T02:41:01.220Z,996.52
2018-07-19T02:42:01.211Z,996.49
2018-07-19T02:43:01.184Z,996.53
2018-07-19T02:44:01.175Z,996.52
2018-07-19T02:45:01.157Z,996.50
2018-07-19T02:46:22.144Z,996.53
2018-07-19T02:47:01.123Z,996.47
2018-07-19T02:48:01.132Z,996.49
2018-07-19T02:49:01.084Z,996.47
2018-07-19T02:50:01.067Z,996.47
2018-07-19T02:51:01.047Z,996.46
2018-07-19T02:52:22.034Z,996.47
2018-07-19T02:53:01.012Z,996.41
2018-07-19T02:54:01.023Z,996.46
2018-07-19T02:55:00.977Z,996.48
2018-07-19T02:56:00.961Z,996.46
2018-07-19T02:57:00.947Z,996.45
2018-07-19T02:58:21.927Z,996.43
2018-07-19T02:59:00.906Z,996.46
2018-07-19T03:00:00.906Z,996.42
2018-07-19T03:01:00.882Z,996.40
2018-07-19T03:02:00.890Z,996.43
2018-07-19T03:03:00.836Z,996.42
2018-07-19T03:04:21.823Z,996.45
2018-07-19T03:05:00.795Z,996.50
2018-07-19T03:06:00.782Z,996.46
2018-07-19T03:07:00.766Z,996.45
2018-07-19T03:08:00.763Z,996.48
2018-07-19T03:09:00.734Z,996.49
2018-07-19T03:10:21.718Z,996.49
2018-07-19T03:11:00.692Z,996.50
2018-07-19T03:12:00.680Z,996.48
2018-07-19T03:13:00.660Z,996.49
2018-07-19T03:14:00.648Z,996.52
2018-07-19T03:15:00.632Z,996.47
2018-07-19T03:16:21.607Z,996.50
2018-07-19T03:17:00.588Z,996.50
2018-07-19T03:18:00.579Z,996.49
2018-07-19T03:19:00.556Z,996.49
2018-07-19T03:20:00.543Z,996.47
2018-07-19T03:21:00.521Z,996.44
2018-07-19T03:22:21.508Z,996.46
2018-07-19T03:23:00.486Z,996.47
2018-07-19T03:24:00.467Z,996.51
2018-07-19T03:25:00.444Z,996.46
2018-07-19T03:26:00.431Z,996.47
2018-07-19T03:27:00.420Z,996.47
2018-07-19T03:28:21.402Z,996.46
2018-07-19T03:29:00.376Z,996.44
2018-07-19T03:30:00.356Z,996.41
2018-07-19T03:31:00.426Z,996.42
2018-07-19T03:32:00.331Z,996.45
2018-07-19T03:33:00.318Z,996.44
2018-07-19T03:34:21.296Z,996.44
2018-07-19T03:35:00.285Z,996.42
2018-07-19T03:36:00.254Z,996.41
2018-07-19T03:37:00.238Z,996.43
2018-07-19T03:38:00.219Z,996.42
2018-07-19T03:39:00.200Z,996.43
2018-07-19T03:40:21.187Z,996.41
2018-07-19T03:41:00.175Z,996.41
2018-07-19T03:42:00.149Z,996.41
2018-07-19T03:43:00.134Z,996.39
2018-07-19T03:44:00.108Z,996.42
2018-07-19T03:45:00.095Z,996.41
2018-07-19T03:46:21.082Z,996.44
2018-07-19T03:47:00.063Z,996.41
2018-07-19T03:48:00.044Z,996.50
2018-07-19T03:49:00.027Z,996.46
2018-07-19T03:50:00.015Z,996.45
2018-07-19T03:51:00.002Z,996.46
2018-07-19T03:52:20.979Z,996.46
2018-07-19T03:52:59.956Z,996.49
2018-07-19T03:53:59.938Z,996.47
2018-07-19T03:54:59.925Z,996.47
2018-07-19T03:55:59.895Z,996.49
2018-07-19T03:56:59.883Z,996.54
2018-07-19T03:58:20.860Z,996.53
2018-07-19T03:58:59.847Z,996.52
2018-07-19T03:59:59.832Z,996.55
2018-07-19T04:00:59.820Z,996.57
2018-07-19T04:01:59.837Z,996.52
2018-07-19T04:02:59.779Z,996.56
2018-07-19T04:04:20.764Z,996.59
2018-07-19T04:04:59.738Z,996.56
2018-07-19T04:05:59.724Z,996.54
2018-07-19T04:06:59.704Z,996.53
2018-07-19T04:07:59.702Z,996.53
2018-07-19T04:08:59.664Z,996.55
2018-07-19T04:10:20.655Z,996.51
2018-07-19T04:10:59.635Z,996.53
2018-07-19T04:11:59.625Z,996.50
2018-07-19T04:12:59.599Z,996.56
2018-07-19T04:13:59.590Z,996.52
2018-07-19T04:14:59.564Z,996.53
2018-07-19T04:16:20.551Z,996.54
2018-07-19T04:16:59.560Z,996.53
2018-07-19T04:17:59.517Z,996.56
2018-07-19T04:18:59.500Z,996.55
2018-07-19T04:19:59.478Z,996.55
2018-07-19T04:20:59.455Z,996.53
2018-07-19T04:22:20.445Z,996.55
2018-07-19T04:22:59.420Z,996.52
2018-07-19T04:23:59.411Z,996.57
2018-07-19T04:24:59.407Z,996.49
2018-07-19T04:25:59.380Z,996.55
2018-07-19T04:26:59.354Z,996.52
2018-07-19T04:28:20.344Z,996.53
2018-07-19T04:28:59.317Z,996.54
2018-07-19T04:29:59.301Z,996.54
2018-07-19T04:30:59.285Z,996.58
2018-07-19T04:31:59.260Z,996.55
2018-07-19T04:32:59.253Z,996.52
2018-07-19T04:34:20.237Z,996.57
2018-07-19T04:34:59.211Z,996.56
2018-07-19T04:35:59.201Z,996.54
2018-07-19T04:36:59.182Z,996.60
2018-07-19T04:37:59.166Z,996.59
2018-07-19T04:38:59.148Z,996.59
2018-07-19T04:40:20.143Z,996.59
2018-07-19T04:40:59.105Z,996.62
2018-07-19T04:41:59.087Z,996.60
2018-07-19T04:42:59.076Z,996.59
2018-07-19T04:43:59.069Z,996.62
2018-07-19T04:44:59.099Z,996.62
2018-07-19T04:46:20.030Z,996.60
2018-07-19T04:46:59.024Z,996.61
2018-07-19T04:47:58.985Z,996.63
2018-07-19T04:48:58.968Z,996.62
2018-07-19T04:49:58.954Z,996.60
2018-07-19T04:50:58.943Z,996.60
2018-07-19T04:52:19.927Z,996.63
2018-07-19T04:52:58.899Z,996.61
2018-07-19T04:53:58.925Z,996.62
2018-07-19T04:54:58.871Z,996.60
2018-07-19T04:55:58.851Z,996.62
2018-07-19T04:56:58.838Z,996.65
2018-07-19T04:58:19.820Z,996.60
2018-07-19T04:58:58.800Z,996.60
2018-07-19T04:59:58.794Z,996.60
2018-07-19T05:00:58.762Z,996.63
2018-07-19T05:01:58.812Z,996.59
2018-07-19T05:02:58.739Z,996.59
2018-07-19T05:04:19.717Z,996.61
2018-07-19T05:04:58.705Z,996.57
2018-07-19T05:05:58.679Z,996.58
2018-07-19T05:06:58.666Z,996.63
2018-07-19T05:07:58.659Z,996.62
2018-07-19T05:08:58.641Z,996.63
2018-07-19T05:10:19.623Z,996.60
2018-07-19T05:10:58.602Z,996.58
2018-07-19T05:11:58.583Z,996.64
2018-07-19T05:12:58.570Z,996.65
2018-07-19T05:13:58.591Z,996.65
2018-07-19T05:14:58.535Z,996.64
2018-07-19T05:16:19.518Z,996.64
2018-07-19T05:16:58.500Z,996.65
2018-07-19T05:17:58.480Z,996.62
2018-07-19T05:18:58.472Z,996.66
2018-07-19T05:19:58.455Z,996.66
2018-07-19T05:20:58.430Z,996.68
2018-07-19T05:22:19.426Z,996.70
2018-07-19T05:22:58.404Z,996.72
2018-07-19T05:23:58.393Z,996.70
2018-07-19T05:24:58.379Z,996.73
2018-07-19T05:25:58.354Z,996.75
2018-07-19T05:26:58.337Z,996.70
2018-07-19T05:28:19.334Z,996.74
2018-07-19T05:28:58.312Z,996.72
2018-07-19T05:29:58.299Z,996.75
2018-07-19T05:30:58.279Z,996.74
2018-07-19T05:31:58.264Z,996.72
2018-07-19T05:32:58.245Z,996.73
2018-07-19T05:34:19.242Z,996.73
2018-07-19T05:34:58.211Z,996.74
2018-07-19T05:35:58.198Z,996.74
2018-07-19T05:36:58.176Z,996.74
2018-07-19T05:37:58.194Z,996.77
2018-07-19T05:38:58.157Z,996.75
2018-07-19T05:40:19.135Z,996.78
2018-07-19T05:40:58.125Z,996.81
2018-07-19T05:41:58.160Z,996.79
2018-07-19T05:42:58.093Z,996.80
2018-07-19T05:43:58.077Z,996.85
2018-07-19T05:44:58.060Z,996.84
2018-07-19T05:46:19.042Z,996.83
2018-07-19T05:46:58.024Z,996.81
2018-07-19T05:47:58.018Z,996.82
2018-07-19T05:48:57.995Z,996.77
2018-07-19T05:49:57.992Z,996.80
2018-07-19T05:50:57.962Z,996.78
2018-07-19T05:52:18.957Z,996.78
2018-07-19T05:52:57.943Z,996.78
2018-07-19T05:53:57.931Z,996.81
2018-07-19T05:54:57.909Z,996.79
2018-07-19T05:55:57.895Z,996.79
2018-07-19T05:56:57.873Z,996.80
2018-07-19T05:58:18.962Z,996.80
2018-07-19T05:58:57.849Z,996.78
2018-07-19T05:59:57.823Z,996.79
2018-07-19T06:00:57.820Z,996.77
2018-07-19T06:01:57.795Z,996.77
2018-07-19T06:02:57.782Z,996.77
2018-07-19T06:04:18.778Z,996.74
2018-07-19T06:04:57.754Z,996.77
2018-07-19T06:05:57.744Z,996.74
2018-07-19T06:06:57.722Z,996.78
2018-07-19T06:07:57.706Z,996.79
2018-07-19T06:08:57.696Z,996.82
2018-07-19T06:10:18.688Z,996.81
2018-07-19T06:10:57.694Z,996.85
2018-07-19T06:11:57.654Z,996.83
2018-07-19T06:12:57.638Z,996.87
2018-07-19T06:13:57.641Z,996.85
2018-07-19T06:14:57.615Z,996.86
2018-07-19T06:16:18.605Z,996.84
2018-07-19T06:16:57.582Z,996.88
2018-07-19T06:17:57.566Z,996.87
2018-07-19T06:18:57.557Z,996.87
2018-07-19T06:19:57.544Z,996.85
2018-07-19T06:20:57.522Z,996.87
2018-07-19T06:22:18.512Z,996.89
2018-07-19T06:22:57.496Z,996.89
2018-07-19T06:23:57.491Z,996.90
2018-07-19T06:24:57.480Z,996.89
2018-07-19T06:25:57.461Z,996.88
2018-07-19T06:26:57.442Z,996.89
2018-07-19T06:28:18.487Z,996.89
2018-07-19T06:28:57.424Z,996.84
2018-07-19T06:29:57.406Z,996.86
2018-07-19T06:30:57.386Z,996.88
2018-07-19T06:31:57.381Z,996.87
2018-07-19T06:32:57.367Z,996.87
2018-07-19T06:34:18.358Z,996.87
2018-07-19T06:34:57.345Z,996.87
2018-07-19T06:35:57.335Z,996.91
2018-07-19T06:36:57.312Z,996.89
2018-07-19T06:37:57.313Z,996.90
2018-07-19T06:38:57.287Z,996.94
2018-07-19T06:40:18.289Z,996.89
2018-07-19T06:40:57.264Z,996.92
2018-07-19T06:41:57.262Z,996.91
2018-07-19T06:42:57.239Z,996.91
2018-07-19T06:43:57.220Z,996.92
2018-07-19T06:44:57.213Z,996.93
2018-07-19T06:46:18.209Z,996.94
2018-07-19T06:46:57.188Z,996.93
2018-07-19T06:47:57.180Z,996.97
2018-07-19T06:48:57.165Z,996.98
2018-07-19T06:49:57.152Z,997.01
2018-07-19T06:50:57.140Z,997.01
2018-07-19T06:52:18.132Z,997.01
2018-07-19T06:52:57.124Z,997.05
2018-07-19T06:53:57.104Z,997.09
2018-07-19T06:54:57.098Z,997.05
2018-07-19T06:55:57.079Z,997.08
2018-07-19T06:56:57.066Z,997.10
2018-07-19T06:58:18.060Z,997.07
2018-07-19T06:58:57.044Z,997.07
2018-07-19T06:59:57.034Z,997.12
2018-07-19T07:00:57.018Z,997.14
2018-07-19T07:01:57.015Z,997.13
2018-07-19T07:02:57.026Z,997.15
2018-07-19T07:04:18.002Z,997.14
2018-07-19T07:04:56.970Z,997.14
2018-07-19T07:05:56.967Z,997.13
2018-07-19T07:06:56.951Z,997.10
2018-07-19T07:07:56.944Z,997.12
2018-07-19T07:08:56.987Z,997.17
2018-07-19T07:10:17.928Z,997.15
2018-07-19T07:10:56.916Z,997.18
2018-07-19T07:11:56.903Z,997.15
2018-07-19T07:12:56.883Z,997.15
2018-07-19T07:13:56.884Z,997.13
2018-07-19T07:14:56.876Z,997.17
2018-07-19T07:16:17.855Z,997.17
2018-07-19T07:16:56.852Z,997.22
2018-07-19T07:17:56.842Z,997.20
2018-07-19T07:18:56.825Z,997.20
2018-07-19T07:19:56.812Z,997.22
2018-07-19T07:20:56.809Z,997.25
2018-07-19T07:22:17.800Z,997.18
2018-07-19T07:22:56.916Z,997.24
2018-07-19T07:23:56.764Z,997.18
2018-07-19T07:24:56.761Z,997.15
2018-07-19T07:25:56.758Z,997.17
2018-07-19T07:26:56.748Z,997.18
2018-07-19T07:28:17.748Z,997.17
2018-07-19T07:28:56.726Z,997.17
2018-07-19T07:29:56.716Z,997.17
2018-07-19T07:30:56.722Z,997.16
2018-07-19T07:31:56.696Z,997.19
2018-07-19T07:32:56.710Z,997.20
2018-07-19T07:34:17.683Z,997.16
2018-07-19T07:34:56.662Z,997.18
2018-07-19T07:35:56.659Z,997.24
2018-07-19T07:36:56.649Z,997.27
2018-07-19T07:37:56.642Z,997.28
2018-07-19T07:38:56.701Z,997.30
2018-07-19T07:40:17.679Z,997.29
2018-07-19T07:40:56.622Z,997.30
2018-07-19T07:41:56.614Z,997.33
